sensor_id;sensor_type;location;lat;lon;timestamp;temperature;humidity
27797;DHT22;15177;50.844;4.412;2024-02-14T00:00:09;10.00;99.90
27797;DHT22;15177;50.844;4.412;2024-02-14T00:02:45;10.10;99.90
27797;DHT22;15177;50.844;4.412;2024-02-14T00:05:12;10.10;99.90
27797;DHT22;15177;50.844;4.412;2024-02-14T00:07:38;10.10;99.90
27797;DHT22;15177;50.844;4.412;2024-02-14T00:10:05;10.10;99.90
27797;DHT22;15177;50.844;4.412;2024-02-14T00:12:34;10.10;99.90
27797;DHT22;15177;50.844;4.412;2024-02-14T00:15:01;10.10;99.90
27797;DHT22;15177;50.844;4.412;2024-02-14T00:17:29;10.20;99.90
27797;DHT22;15177;50.844;4.412;2024-02-14T00:19:54;10.20;99.90
27797;DHT22;15177;50.844;4.412;2024-02-14T00:22:24;10.20;99.90
27797;DHT22;15177;50.844;4.412;2024-02-14T00:24:52;10.20;99.90
27797;DHT22;15177;50.844;4.412;2024-02-14T00:27:17;10.30;99.90
27797;DHT22;15177;50.844;4.412;2024-02-14T00:29:43;10.30;99.90
27797;DHT22;15177;50.844;4.412;2024-02-14T00:32:14;10.40;99.90
27797;DHT22;15177;50.844;4.412;2024-02-14T00:34:39;10.20;99.90
27797;DHT22;15177;50.844;4.412;2024-02-14T00:37:05;10.30;99.90
27797;DHT22;15177;50.844;4.412;2024-02-14T00:39:31;10.30;99.90
27797;DHT22;15177;50.844;4.412;2024-02-14T00:41:56;10.40;99.90
27797;DHT22;15177;50.844;4.412;2024-02-14T00:44:22;10.30;99.90
27797;DHT22;15177;50.844;4.412;2024-02-14T00:46:56;10.40;99.90
27797;DHT22;15177;50.844;4.412;2024-02-14T00:49:29;10.40;99.90
27797;DHT22;15177;50.844;4.412;2024-02-14T00:51:54;10.40;99.90
27797;DHT22;15177;50.844;4.412;2024-02-14T00:54:20;10.30;99.90
27797;DHT22;15177;50.844;4.412;2024-02-14T00:56:46;10.40;99.90
27797;DHT22;15177;50.844;4.412;2024-02-14T00:59:12;10.40;99.90
27797;DHT22;15177;50.844;4.412;2024-02-14T01:01:38;10.40;99.90
27797;DHT22;15177;50.844;4.412;2024-02-14T01:04:04;10.30;99.90
27797;DHT22;15177;50.844;4.412;2024-02-14T01:06:30;10.40;99.90
27797;DHT22;15177;50.844;4.412;2024-02-14T01:08:58;10.40;99.90
27797;DHT22;15177;50.844;4.412;2024-02-14T01:11:28;10.50;99.90
27797;DHT22;15177;50.844;4.412;2024-02-14T01:13:56;10.50;99.90
27797;DHT22;15177;50.844;4.412;2024-02-14T01:16:24;10.50;99.90
27797;DHT22;15177;50.844;4.412;2024-02-14T01:18:50;10.50;99.90
27797;DHT22;15177;50.844;4.412;2024-02-14T01:21:16;10.50;99.90
27797;DHT22;15177;50.844;4.412;2024-02-14T01:23:44;10.40;99.90
27797;DHT22;15177;50.844;4.412;2024-02-14T01:26:09;10.40;99.90
27797;DHT22;15177;50.844;4.412;2024-02-14T01:28:35;10.40;99.90
27797;DHT22;15177;50.844;4.412;2024-02-14T01:31:01;10.40;99.90
27797;DHT22;15177;50.844;4.412;2024-02-14T01:33:31;10.50;99.90
27797;DHT22;15177;50.844;4.412;2024-02-14T01:35:59;10.50;99.90
27797;DHT22;15177;50.844;4.412;2024-02-14T01:38:25;10.40;99.90
27797;DHT22;15177;50.844;4.412;2024-02-14T01:40:50;10.40;99.90
27797;DHT22;15177;50.844;4.412;2024-02-14T01:43:17;10.40;99.90
27797;DHT22;15177;50.844;4.412;2024-02-14T01:45:47;10.40;99.90
27797;DHT22;15177;50.844;4.412;2024-02-14T01:48:13;10.40;99.90
27797;DHT22;15177;50.844;4.412;2024-02-14T01:50:40;10.40;99.90
27797;DHT22;15177;50.844;4.412;2024-02-14T01:53:06;10.40;99.90
27797;DHT22;15177;50.844;4.412;2024-02-14T01:55:32;10.40;99.90
27797;DHT22;15177;50.844;4.412;2024-02-14T01:57:59;10.50;99.90
27797;DHT22;15177;50.844;4.412;2024-02-14T02:00:25;10.50;99.90
27797;DHT22;15177;50.844;4.412;2024-02-14T02:02:51;10.50;99.90
27797;DHT22;15177;50.844;4.412;2024-02-14T02:05:17;10.50;99.90
27797;DHT22;15177;50.844;4.412;2024-02-14T02:07:44;10.50;99.90
27797;DHT22;15177;50.844;4.412;2024-02-14T02:10:14;10.50;99.90
27797;DHT22;15177;50.844;4.412;2024-02-14T02:12:44;10.50;99.90
27797;DHT22;15177;50.844;4.412;2024-02-14T02:15:10;10.60;99.90
27797;DHT22;15177;50.844;4.412;2024-02-14T02:17:40;10.70;99.90
27797;DHT22;15177;50.844;4.412;2024-02-14T02:20:07;10.60;99.90
27797;DHT22;15177;50.844;4.412;2024-02-14T02:22:34;10.60;99.90
27797;DHT22;15177;50.844;4.412;2024-02-14T02:25:03;10.60;99.90
27797;DHT22;15177;50.844;4.412;2024-02-14T02:27:34;10.60;99.90
27797;DHT22;15177;50.844;4.412;2024-02-14T02:30:06;10.60;99.90
27797;DHT22;15177;50.844;4.412;2024-02-14T02:32:32;10.50;99.90
27797;DHT22;15177;50.844;4.412;2024-02-14T02:34:58;10.50;99.90
27797;DHT22;15177;50.844;4.412;2024-02-14T02:37:27;10.60;99.90
27797;DHT22;15177;50.844;4.412;2024-02-14T02:39:55;10.50;99.90
27797;DHT22;15177;50.844;4.412;2024-02-14T02:42:23;10.60;99.90
27797;DHT22;15177;50.844;4.412;2024-02-14T02:44:51;10.60;99.90
27797;DHT22;15177;50.844;4.412;2024-02-14T02:47:17;10.70;99.90
27797;DHT22;15177;50.844;4.412;2024-02-14T02:49:44;10.70;99.90
27797;DHT22;15177;50.844;4.412;2024-02-14T02:52:13;10.80;99.90
27797;DHT22;15177;50.844;4.412;2024-02-14T02:54:40;10.70;99.90
27797;DHT22;15177;50.844;4.412;2024-02-14T02:57:14;10.80;99.90
27797;DHT22;15177;50.844;4.412;2024-02-14T02:59:46;10.70;99.90
27797;DHT22;15177;50.844;4.412;2024-02-14T03:02:17;10.70;99.90
27797;DHT22;15177;50.844;4.412;2024-02-14T03:04:44;10.70;99.90
27797;DHT22;15177;50.844;4.412;2024-02-14T03:07:11;10.70;99.90
27797;DHT22;15177;50.844;4.412;2024-02-14T03:09:39;10.80;99.90
27797;DHT22;15177;50.844;4.412;2024-02-14T03:12:05;10.80;99.90
27797;DHT22;15177;50.844;4.412;2024-02-14T03:14:33;10.70;99.90
27797;DHT22;15177;50.844;4.412;2024-02-14T03:17:00;10.70;99.90
27797;DHT22;15177;50.844;4.412;2024-02-14T03:19:26;10.70;99.90
27797;DHT22;15177;50.844;4.412;2024-02-14T03:22:02;10.80;99.90
27797;DHT22;15177;50.844;4.412;2024-02-14T03:24:31;10.80;99.90
27797;DHT22;15177;50.844;4.412;2024-02-14T03:27:01;10.70;99.90
27797;DHT22;15177;50.844;4.412;2024-02-14T03:29:29;10.70;99.90
27797;DHT22;15177;50.844;4.412;2024-02-14T03:31:54;10.80;99.90
27797;DHT22;15177;50.844;4.412;2024-02-14T03:34:22;10.70;99.90
27797;DHT22;15177;50.844;4.412;2024-02-14T03:36:50;10.80;99.90
27797;DHT22;15177;50.844;4.412;2024-02-14T03:39:17;10.80;99.90
27797;DHT22;15177;50.844;4.412;2024-02-14T03:41:46;10.80;99.90
27797;DHT22;15177;50.844;4.412;2024-02-14T03:44:12;10.80;99.90
27797;DHT22;15177;50.844;4.412;2024-02-14T03:46:40;10.70;99.90
27797;DHT22;15177;50.844;4.412;2024-02-14T03:49:05;10.70;99.90
27797;DHT22;15177;50.844;4.412;2024-02-14T03:51:31;10.80;99.90
27797;DHT22;15177;50.844;4.412;2024-02-14T03:53:58;10.90;99.90
27797;DHT22;15177;50.844;4.412;2024-02-14T03:56:24;10.90;99.90
27797;DHT22;15177;50.844;4.412;2024-02-14T03:58:52;10.90;99.90
27797;DHT22;15177;50.844;4.412;2024-02-14T04:01:17;10.90;99.90
27797;DHT22;15177;50.844;4.412;2024-02-14T04:03:48;10.90;99.90
27797;DHT22;15177;50.844;4.412;2024-02-14T04:06:14;10.90;99.90
27797;DHT22;15177;50.844;4.412;2024-02-14T04:08:40;10.90;99.90
27797;DHT22;15177;50.844;4.412;2024-02-14T04:11:05;10.90;99.90
27797;DHT22;15177;50.844;4.412;2024-02-14T04:13:31;11.00;99.90
27797;DHT22;15177;50.844;4.412;2024-02-14T04:15:57;10.90;99.90
27797;DHT22;15177;50.844;4.412;2024-02-14T04:18:23;10.90;99.90
27797;DHT22;15177;50.844;4.412;2024-02-14T04:20:49;10.80;99.90
27797;DHT22;15177;50.844;4.412;2024-02-14T04:23:17;10.90;99.90
27797;DHT22;15177;50.844;4.412;2024-02-14T04:25:44;10.90;99.90
27797;DHT22;15177;50.844;4.412;2024-02-14T04:28:10;10.90;99.90
27797;DHT22;15177;50.844;4.412;2024-02-14T04:30:39;10.80;99.90
27797;DHT22;15177;50.844;4.412;2024-02-14T04:33:09;10.80;99.90
27797;DHT22;15177;50.844;4.412;2024-02-14T04:35:35;10.90;99.90
27797;DHT22;15177;50.844;4.412;2024-02-14T04:38:00;10.90;99.90
27797;DHT22;15177;50.844;4.412;2024-02-14T04:40:29;11.00;99.90
27797;DHT22;15177;50.844;4.412;2024-02-14T04:42:54;10.90;99.90
27797;DHT22;15177;50.844;4.412;2024-02-14T04:45:22;10.90;99.90
27797;DHT22;15177;50.844;4.412;2024-02-14T04:47:49;11.00;99.90
27797;DHT22;15177;50.844;4.412;2024-02-14T04:50:17;11.10;99.90
27797;DHT22;15177;50.844;4.412;2024-02-14T04:52:44;11.10;99.90
27797;DHT22;15177;50.844;4.412;2024-02-14T04:55:10;11.10;99.90
27797;DHT22;15177;50.844;4.412;2024-02-14T04:57:35;11.10;99.90
27797;DHT22;15177;50.844;4.412;2024-02-14T05:00:03;11.10;99.90
27797;DHT22;15177;50.844;4.412;2024-02-14T05:02:30;11.20;99.90
27797;DHT22;15177;50.844;4.412;2024-02-14T05:04:57;11.20;99.90
27797;DHT22;15177;50.844;4.412;2024-02-14T05:07:24;11.20;99.90
27797;DHT22;15177;50.844;4.412;2024-02-14T05:09:50;11.30;99.90
27797;DHT22;15177;50.844;4.412;2024-02-14T05:12:18;11.30;99.90
27797;DHT22;15177;50.844;4.412;2024-02-14T05:14:45;11.30;99.90
27797;DHT22;15177;50.844;4.412;2024-02-14T05:17:14;11.40;99.90
27797;DHT22;15177;50.844;4.412;2024-02-14T05:19:42;11.10;99.90
27797;DHT22;15177;50.844;4.412;2024-02-14T05:22:09;11.20;99.90
27797;DHT22;15177;50.844;4.412;2024-02-14T05:24:37;11.10;99.90
27797;DHT22;15177;50.844;4.412;2024-02-14T05:27:04;11.10;99.90
27797;DHT22;15177;50.844;4.412;2024-02-14T05:29:33;11.20;99.90
27797;DHT22;15177;50.844;4.412;2024-02-14T05:31:58;11.20;99.90
27797;DHT22;15177;50.844;4.412;2024-02-14T05:34:26;11.20;99.90
27797;DHT22;15177;50.844;4.412;2024-02-14T05:36:52;11.20;99.90
27797;DHT22;15177;50.844;4.412;2024-02-14T05:39:18;11.30;99.90
27797;DHT22;15177;50.844;4.412;2024-02-14T05:41:47;11.20;99.90
27797;DHT22;15177;50.844;4.412;2024-02-14T05:44:16;11.20;99.90
27797;DHT22;15177;50.844;4.412;2024-02-14T05:46:44;11.20;99.90
27797;DHT22;15177;50.844;4.412;2024-02-14T05:49:10;11.30;99.90
27797;DHT22;15177;50.844;4.412;2024-02-14T05:51:36;11.40;99.90
27797;DHT22;15177;50.844;4.412;2024-02-14T05:54:04;11.30;99.90
27797;DHT22;15177;50.844;4.412;2024-02-14T05:56:31;11.20;99.90
27797;DHT22;15177;50.844;4.412;2024-02-14T05:58:57;11.30;99.90
27797;DHT22;15177;50.844;4.412;2024-02-14T06:01:22;11.40;99.90
27797;DHT22;15177;50.844;4.412;2024-02-14T06:03:49;11.40;99.90
27797;DHT22;15177;50.844;4.412;2024-02-14T06:06:17;11.40;99.90
27797;DHT22;15177;50.844;4.412;2024-02-14T06:08:43;11.40;99.90
27797;DHT22;15177;50.844;4.412;2024-02-14T06:11:08;11.40;99.90
27797;DHT22;15177;50.844;4.412;2024-02-14T06:13:35;11.40;99.90
27797;DHT22;15177;50.844;4.412;2024-02-14T06:16:01;11.40;99.90
27797;DHT22;15177;50.844;4.412;2024-02-14T06:18:27;11.30;99.90
27797;DHT22;15177;50.844;4.412;2024-02-14T06:20:53;11.30;99.90
27797;DHT22;15177;50.844;4.412;2024-02-14T06:23:19;11.40;99.90
27797;DHT22;15177;50.844;4.412;2024-02-14T06:25:46;11.30;99.90
27797;DHT22;15177;50.844;4.412;2024-02-14T06:28:15;11.30;99.90
27797;DHT22;15177;50.844;4.412;2024-02-14T06:30:40;11.40;99.90
27797;DHT22;15177;50.844;4.412;2024-02-14T06:33:06;11.50;99.90
27797;DHT22;15177;50.844;4.412;2024-02-14T06:35:33;11.50;99.90
27797;DHT22;15177;50.844;4.412;2024-02-14T06:38:03;11.60;99.90
27797;DHT22;15177;50.844;4.412;2024-02-14T06:40:29;11.50;99.90
27797;DHT22;15177;50.844;4.412;2024-02-14T06:43:00;11.50;99.90
27797;DHT22;15177;50.844;4.412;2024-02-14T06:45:26;11.50;99.90
27797;DHT22;15177;50.844;4.412;2024-02-14T06:47:53;11.50;99.90
27797;DHT22;15177;50.844;4.412;2024-02-14T06:50:22;11.60;99.90
27797;DHT22;15177;50.844;4.412;2024-02-14T06:52:47;11.50;99.90
27797;DHT22;15177;50.844;4.412;2024-02-14T06:55:13;11.50;99.90
27797;DHT22;15177;50.844;4.412;2024-02-14T06:57:41;11.40;99.90
27797;DHT22;15177;50.844;4.412;2024-02-14T07:00:07;11.40;99.90
27797;DHT22;15177;50.844;4.412;2024-02-14T07:02:34;11.40;99.90
27797;DHT22;15177;50.844;4.412;2024-02-14T07:05:00;11.50;99.90
27797;DHT22;15177;50.844;4.412;2024-02-14T07:07:25;11.50;99.90
27797;DHT22;15177;50.844;4.412;2024-02-14T07:09:53;11.60;99.90
27797;DHT22;15177;50.844;4.412;2024-02-14T07:12:19;11.60;99.90
27797;DHT22;15177;50.844;4.412;2024-02-14T07:14:46;11.60;99.90
27797;DHT22;15177;50.844;4.412;2024-02-14T07:17:12;11.70;99.90
27797;DHT22;15177;50.844;4.412;2024-02-14T07:19:38;11.60;99.90
27797;DHT22;15177;50.844;4.412;2024-02-14T07:22:09;11.50;99.90
27797;DHT22;15177;50.844;4.412;2024-02-14T07:24:35;11.60;99.90
27797;DHT22;15177;50.844;4.412;2024-02-14T07:27:02;11.60;99.90
27797;DHT22;15177;50.844;4.412;2024-02-14T07:29:28;11.60;99.90
27797;DHT22;15177;50.844;4.412;2024-02-14T07:31:53;11.60;99.90
27797;DHT22;15177;50.844;4.412;2024-02-14T07:34:20;11.70;99.90
27797;DHT22;15177;50.844;4.412;2024-02-14T07:36:48;11.70;99.90
27797;DHT22;15177;50.844;4.412;2024-02-14T07:39:13;11.60;99.90
27797;DHT22;15177;50.844;4.412;2024-02-14T07:41:42;11.60;99.90
27797;DHT22;15177;50.844;4.412;2024-02-14T07:44:09;11.60;99.90
27797;DHT22;15177;50.844;4.412;2024-02-14T07:46:37;11.60;99.90
27797;DHT22;15177;50.844;4.412;2024-02-14T07:49:06;11.60;99.90
27797;DHT22;15177;50.844;4.412;2024-02-14T07:51:32;11.60;99.90
27797;DHT22;15177;50.844;4.412;2024-02-14T07:54:04;11.60;99.90
27797;DHT22;15177;50.844;4.412;2024-02-14T07:56:31;11.70;99.90
27797;DHT22;15177;50.844;4.412;2024-02-14T07:58:57;11.80;99.90
27797;DHT22;15177;50.844;4.412;2024-02-14T08:01:23;11.90;99.90
27797;DHT22;15177;50.844;4.412;2024-02-14T08:03:50;12.00;99.90
27797;DHT22;15177;50.844;4.412;2024-02-14T08:06:16;12.00;99.90
27797;DHT22;15177;50.844;4.412;2024-02-14T08:08:43;12.00;99.90
27797;DHT22;15177;50.844;4.412;2024-02-14T08:11:14;11.90;99.90
27797;DHT22;15177;50.844;4.412;2024-02-14T08:13:39;11.90;99.90
27797;DHT22;15177;50.844;4.412;2024-02-14T08:16:07;11.90;99.90
27797;DHT22;15177;50.844;4.412;2024-02-14T08:18:32;12.00;99.90
27797;DHT22;15177;50.844;4.412;2024-02-14T08:21:00;11.90;99.90
27797;DHT22;15177;50.844;4.412;2024-02-14T08:23:26;11.90;99.90
27797;DHT22;15177;50.844;4.412;2024-02-14T08:25:52;11.90;99.90
27797;DHT22;15177;50.844;4.412;2024-02-14T08:28:20;11.90;99.90
27797;DHT22;15177;50.844;4.412;2024-02-14T08:30:51;11.90;99.90
27797;DHT22;15177;50.844;4.412;2024-02-14T08:33:21;11.90;99.90
27797;DHT22;15177;50.844;4.412;2024-02-14T08:35:48;12.00;99.90
27797;DHT22;15177;50.844;4.412;2024-02-14T08:38:14;12.00;99.90
27797;DHT22;15177;50.844;4.412;2024-02-14T08:40:39;12.10;99.90
27797;DHT22;15177;50.844;4.412;2024-02-14T08:43:05;12.10;99.90
27797;DHT22;15177;50.844;4.412;2024-02-14T08:45:31;12.10;99.90
27797;DHT22;15177;50.844;4.412;2024-02-14T08:47:57;12.10;99.90
27797;DHT22;15177;50.844;4.412;2024-02-14T08:50:22;12.10;99.90
27797;DHT22;15177;50.844;4.412;2024-02-14T08:52:50;12.10;99.90
27797;DHT22;15177;50.844;4.412;2024-02-14T08:55:16;12.10;99.90
27797;DHT22;15177;50.844;4.412;2024-02-14T08:57:44;12.10;99.90
27797;DHT22;15177;50.844;4.412;2024-02-14T09:00:10;12.10;99.90
27797;DHT22;15177;50.844;4.412;2024-02-14T09:02:36;12.10;99.90
27797;DHT22;15177;50.844;4.412;2024-02-14T09:05:03;12.10;99.90
27797;DHT22;15177;50.844;4.412;2024-02-14T09:07:33;12.10;99.90
27797;DHT22;15177;50.844;4.412;2024-02-14T09:09:59;12.10;99.90
27797;DHT22;15177;50.844;4.412;2024-02-14T09:12:27;12.10;99.90
27797;DHT22;15177;50.844;4.412;2024-02-14T09:14:56;12.10;99.90
27797;DHT22;15177;50.844;4.412;2024-02-14T09:17:24;12.20;99.90
27797;DHT22;15177;50.844;4.412;2024-02-14T09:19:50;12.20;99.90
27797;DHT22;15177;50.844;4.412;2024-02-14T09:22:16;12.20;99.90
27797;DHT22;15177;50.844;4.412;2024-02-14T09:24:49;12.30;99.90
27797;DHT22;15177;50.844;4.412;2024-02-14T09:27:17;12.30;99.90
27797;DHT22;15177;50.844;4.412;2024-02-14T09:29:42;12.30;99.90
27797;DHT22;15177;50.844;4.412;2024-02-14T09:32:08;12.30;99.90
27797;DHT22;15177;50.844;4.412;2024-02-14T09:34:34;12.20;99.90
27797;DHT22;15177;50.844;4.412;2024-02-14T09:37:01;12.30;99.90
27797;DHT22;15177;50.844;4.412;2024-02-14T09:39:28;12.30;99.90
27797;DHT22;15177;50.844;4.412;2024-02-14T09:41:59;12.40;99.90
27797;DHT22;15177;50.844;4.412;2024-02-14T09:44:31;12.40;99.90
27797;DHT22;15177;50.844;4.412;2024-02-14T09:46:58;12.30;99.90
27797;DHT22;15177;50.844;4.412;2024-02-14T09:49:29;12.30;99.90
27797;DHT22;15177;50.844;4.412;2024-02-14T09:51:55;12.30;99.90
27797;DHT22;15177;50.844;4.412;2024-02-14T09:54:24;12.30;99.90
27797;DHT22;15177;50.844;4.412;2024-02-14T09:56:51;12.30;99.90
27797;DHT22;15177;50.844;4.412;2024-02-14T09:59:20;12.30;99.90
27797;DHT22;15177;50.844;4.412;2024-02-14T10:01:52;12.30;99.90
27797;DHT22;15177;50.844;4.412;2024-02-14T10:04:18;12.30;99.90
27797;DHT22;15177;50.844;4.412;2024-02-14T10:06:50;12.30;99.90
27797;DHT22;15177;50.844;4.412;2024-02-14T10:09:23;12.30;99.90
27797;DHT22;15177;50.844;4.412;2024-02-14T10:11:49;12.40;99.90
27797;DHT22;15177;50.844;4.412;2024-02-14T10:14:15;12.30;99.90
27797;DHT22;15177;50.844;4.412;2024-02-14T10:16:43;12.40;99.90
27797;DHT22;15177;50.844;4.412;2024-02-14T10:19:17;12.50;99.90
27797;DHT22;15177;50.844;4.412;2024-02-14T10:21:58;12.50;99.90
27797;DHT22;15177;50.844;4.412;2024-02-14T10:24:29;12.40;99.90
27797;DHT22;15177;50.844;4.412;2024-02-14T10:26:58;12.50;99.90
27797;DHT22;15177;50.844;4.412;2024-02-14T10:29:25;12.50;99.90
27797;DHT22;15177;50.844;4.412;2024-02-14T10:31:50;12.60;99.90
27797;DHT22;15177;50.844;4.412;2024-02-14T10:34:18;12.70;99.90
27797;DHT22;15177;50.844;4.412;2024-02-14T10:36:45;12.60;99.90
27797;DHT22;15177;50.844;4.412;2024-02-14T10:39:16;12.60;99.90
27797;DHT22;15177;50.844;4.412;2024-02-14T10:41:42;12.60;99.90
27797;DHT22;15177;50.844;4.412;2024-02-14T10:44:10;12.70;99.90
27797;DHT22;15177;50.844;4.412;2024-02-14T10:46:37;12.70;99.90
27797;DHT22;15177;50.844;4.412;2024-02-14T10:49:04;12.70;99.90
27797;DHT22;15177;50.844;4.412;2024-02-14T10:51:34;12.70;99.90
27797;DHT22;15177;50.844;4.412;2024-02-14T10:54:04;12.70;99.90
27797;DHT22;15177;50.844;4.412;2024-02-14T10:56:32;12.60;99.90
27797;DHT22;15177;50.844;4.412;2024-02-14T10:59:04;12.60;99.90
27797;DHT22;15177;50.844;4.412;2024-02-14T11:01:31;12.60;99.90
27797;DHT22;15177;50.844;4.412;2024-02-14T11:04:02;12.60;99.90
27797;DHT22;15177;50.844;4.412;2024-02-14T11:06:32;12.60;99.90
27797;DHT22;15177;50.844;4.412;2024-02-14T11:09:03;12.70;99.90
27797;DHT22;15177;50.844;4.412;2024-02-14T11:11:36;12.80;99.90
27797;DHT22;15177;50.844;4.412;2024-02-14T11:14:05;12.80;99.90
27797;DHT22;15177;50.844;4.412;2024-02-14T11:16:31;12.80;99.90
27797;DHT22;15177;50.844;4.412;2024-02-14T11:19:12;12.80;99.90
27797;DHT22;15177;50.844;4.412;2024-02-14T11:21:42;12.70;99.90
27797;DHT22;15177;50.844;4.412;2024-02-14T11:24:12;12.70;99.90
27797;DHT22;15177;50.844;4.412;2024-02-14T11:26:50;12.80;99.90
27797;DHT22;15177;50.844;4.412;2024-02-14T11:29:17;12.90;99.90
27797;DHT22;15177;50.844;4.412;2024-02-14T11:31:44;12.90;99.90
27797;DHT22;15177;50.844;4.412;2024-02-14T11:34:15;12.90;99.90
27797;DHT22;15177;50.844;4.412;2024-02-14T11:36:44;13.00;99.90
27797;DHT22;15177;50.844;4.412;2024-02-14T11:39:11;13.00;99.90
27797;DHT22;15177;50.844;4.412;2024-02-14T11:41:42;13.00;99.90
27797;DHT22;15177;50.844;4.412;2024-02-14T11:44:10;13.00;99.90
27797;DHT22;15177;50.844;4.412;2024-02-14T11:46:40;12.90;99.90
27797;DHT22;15177;50.844;4.412;2024-02-14T11:49:07;12.90;99.90
27797;DHT22;15177;50.844;4.412;2024-02-14T11:51:34;12.80;99.90
27797;DHT22;15177;50.844;4.412;2024-02-14T11:54:07;12.80;99.90
27797;DHT22;15177;50.844;4.412;2024-02-14T11:56:37;12.80;99.90
27797;DHT22;15177;50.844;4.412;2024-02-14T11:59:07;12.90;99.90
27797;DHT22;15177;50.844;4.412;2024-02-14T12:01:37;12.90;99.90
27797;DHT22;15177;50.844;4.412;2024-02-14T12:04:08;13.00;99.90
27797;DHT22;15177;50.844;4.412;2024-02-14T12:06:35;13.10;99.90
27797;DHT22;15177;50.844;4.412;2024-02-14T12:09:04;13.10;99.90
27797;DHT22;15177;50.844;4.412;2024-02-14T12:11:39;13.10;99.90
27797;DHT22;15177;50.844;4.412;2024-02-14T12:14:09;13.30;99.90
27797;DHT22;15177;50.844;4.412;2024-02-14T12:16:38;13.30;99.90
27797;DHT22;15177;50.844;4.412;2024-02-14T12:19:09;13.20;99.90
27797;DHT22;15177;50.844;4.412;2024-02-14T12:21:42;13.20;99.90
27797;DHT22;15177;50.844;4.412;2024-02-14T12:24:14;13.30;99.90
27797;DHT22;15177;50.844;4.412;2024-02-14T12:26:43;13.30;99.90
27797;DHT22;15177;50.844;4.412;2024-02-14T12:29:12;13.30;99.90
27797;DHT22;15177;50.844;4.412;2024-02-14T12:31:41;13.30;99.90
27797;DHT22;15177;50.844;4.412;2024-02-14T12:34:12;13.30;99.90
27797;DHT22;15177;50.844;4.412;2024-02-14T12:36:42;13.30;99.90
27797;DHT22;15177;50.844;4.412;2024-02-14T12:39:10;13.40;99.90
27797;DHT22;15177;50.844;4.412;2024-02-14T12:41:42;13.40;99.90
27797;DHT22;15177;50.844;4.412;2024-02-14T12:44:08;13.40;99.90
27797;DHT22;15177;50.844;4.412;2024-02-14T12:46:34;13.40;99.90
27797;DHT22;15177;50.844;4.412;2024-02-14T12:49:03;13.40;99.90
27797;DHT22;15177;50.844;4.412;2024-02-14T12:51:31;13.40;99.90
27797;DHT22;15177;50.844;4.412;2024-02-14T12:53:57;13.50;99.90
27797;DHT22;15177;50.844;4.412;2024-02-14T12:56:22;13.50;99.90
27797;DHT22;15177;50.844;4.412;2024-02-14T12:58:51;13.50;99.90
27797;DHT22;15177;50.844;4.412;2024-02-14T13:01:19;13.50;99.90
27797;DHT22;15177;50.844;4.412;2024-02-14T13:03:44;13.50;99.90
27797;DHT22;15177;50.844;4.412;2024-02-14T13:06:10;13.50;99.90
27797;DHT22;15177;50.844;4.412;2024-02-14T13:08:36;13.50;99.90
27797;DHT22;15177;50.844;4.412;2024-02-14T13:11:06;13.50;99.90
27797;DHT22;15177;50.844;4.412;2024-02-14T13:13:34;13.50;99.90
27797;DHT22;15177;50.844;4.412;2024-02-14T13:16:02;13.50;99.90
27797;DHT22;15177;50.844;4.412;2024-02-14T13:18:28;13.50;99.90
27797;DHT22;15177;50.844;4.412;2024-02-14T13:20:56;13.50;99.90
27797;DHT22;15177;50.844;4.412;2024-02-14T13:23:25;13.50;99.90
27797;DHT22;15177;50.844;4.412;2024-02-14T13:25:54;13.40;99.90
27797;DHT22;15177;50.844;4.412;2024-02-14T13:28:22;13.40;99.90
27797;DHT22;15177;50.844;4.412;2024-02-14T13:30:52;13.40;99.90
27797;DHT22;15177;50.844;4.412;2024-02-14T13:33:18;13.30;99.90
27797;DHT22;15177;50.844;4.412;2024-02-14T13:35:44;13.40;99.90
27797;DHT22;15177;50.844;4.412;2024-02-14T13:38:13;13.40;99.90
27797;DHT22;15177;50.844;4.412;2024-02-14T13:40:38;13.40;99.90
27797;DHT22;15177;50.844;4.412;2024-02-14T13:43:06;13.40;99.90
27797;DHT22;15177;50.844;4.412;2024-02-14T13:45:43;13.50;99.90
27797;DHT22;15177;50.844;4.412;2024-02-14T13:48:09;13.40;99.90
27797;DHT22;15177;50.844;4.412;2024-02-14T13:50:36;13.40;99.90
27797;DHT22;15177;50.844;4.412;2024-02-14T13:53:04;13.50;99.90
27797;DHT22;15177;50.844;4.412;2024-02-14T13:55:30;13.50;99.90
27797;DHT22;15177;50.844;4.412;2024-02-14T13:57:56;13.40;99.90
27797;DHT22;15177;50.844;4.412;2024-02-14T14:00:22;13.40;99.90
27797;DHT22;15177;50.844;4.412;2024-02-14T14:02:48;13.40;99.90
27797;DHT22;15177;50.844;4.412;2024-02-14T14:05:14;13.40;99.90
27797;DHT22;15177;50.844;4.412;2024-02-14T14:07:42;13.50;99.90
27797;DHT22;15177;50.844;4.412;2024-02-14T14:10:11;13.50;99.90
27797;DHT22;15177;50.844;4.412;2024-02-14T14:12:36;13.50;99.90
27797;DHT22;15177;50.844;4.412;2024-02-14T14:15:02;13.40;99.90
27797;DHT22;15177;50.844;4.412;2024-02-14T14:17:28;13.50;99.90
27797;DHT22;15177;50.844;4.412;2024-02-14T14:19:54;13.50;99.90
27797;DHT22;15177;50.844;4.412;2024-02-14T14:22:20;13.50;99.90
27797;DHT22;15177;50.844;4.412;2024-02-14T14:24:46;13.50;99.90
27797;DHT22;15177;50.844;4.412;2024-02-14T14:27:12;13.40;99.90
27797;DHT22;15177;50.844;4.412;2024-02-14T14:29:43;13.50;99.90
27797;DHT22;15177;50.844;4.412;2024-02-14T14:32:09;13.50;99.90
27797;DHT22;15177;50.844;4.412;2024-02-14T14:34:35;13.50;99.90
27797;DHT22;15177;50.844;4.412;2024-02-14T14:37:02;13.60;99.90
27797;DHT22;15177;50.844;4.412;2024-02-14T14:39:30;13.60;99.90
27797;DHT22;15177;50.844;4.412;2024-02-14T14:41:58;13.70;99.90
27797;DHT22;15177;50.844;4.412;2024-02-14T14:44:27;13.50;99.90
27797;DHT22;15177;50.844;4.412;2024-02-14T14:46:57;13.50;99.90
27797;DHT22;15177;50.844;4.412;2024-02-14T14:49:22;13.50;99.90
27797;DHT22;15177;50.844;4.412;2024-02-14T14:51:48;13.60;99.90
27797;DHT22;15177;50.844;4.412;2024-02-14T14:54:16;13.70;99.90
27797;DHT22;15177;50.844;4.412;2024-02-14T14:56:45;13.70;99.90
27797;DHT22;15177;50.844;4.412;2024-02-14T14:59:11;13.80;99.90
27797;DHT22;15177;50.844;4.412;2024-02-14T15:01:40;13.70;99.90
27797;DHT22;15177;50.844;4.412;2024-02-14T15:04:06;13.70;99.90
27797;DHT22;15177;50.844;4.412;2024-02-14T15:06:32;13.70;99.90
27797;DHT22;15177;50.844;4.412;2024-02-14T15:09:00;13.70;99.90
27797;DHT22;15177;50.844;4.412;2024-02-14T15:11:28;13.80;99.90
27797;DHT22;15177;50.844;4.412;2024-02-14T15:13:54;13.80;99.90
27797;DHT22;15177;50.844;4.412;2024-02-14T15:16:20;13.80;99.90
27797;DHT22;15177;50.844;4.412;2024-02-14T15:18:46;13.80;99.90
27797;DHT22;15177;50.844;4.412;2024-02-14T15:21:12;13.80;99.90
27797;DHT22;15177;50.844;4.412;2024-02-14T15:23:37;13.70;99.90
27797;DHT22;15177;50.844;4.412;2024-02-14T15:26:06;13.60;99.90
27797;DHT22;15177;50.844;4.412;2024-02-14T15:28:36;13.60;99.90
27797;DHT22;15177;50.844;4.412;2024-02-14T15:31:08;13.60;99.90